createdAt,value
2023-04-12T00:00:02.265Z,1.60
2023-04-12T00:01:04.347Z,1.40
2023-04-12T00:02:06.757Z,1.35
2023-04-12T00:03:10.404Z,1.40
2023-04-12T00:04:14.691Z,1.73
2023-04-12T00:05:16.876Z,1.80
2023-04-12T00:06:18.611Z,1.70
2023-04-12T00:07:21.428Z,1.58
2023-04-12T00:08:33.225Z,1.90
2023-04-12T00:09:36.474Z,1.83
2023-04-12T00:10:38.137Z,1.90
2023-04-12T00:11:39.842Z,2.25
2023-04-12T00:12:41.593Z,1.73
2023-04-12T00:13:43.195Z,2.42
2023-04-12T00:14:45.630Z,2.22
2023-04-12T00:15:47.274Z,2.97
2023-04-12T00:16:49.260Z,1.98
2023-04-12T00:17:50.944Z,2.65
2023-04-12T00:18:52.612Z,2.60
2023-04-12T00:19:54.167Z,2.58
2023-04-12T00:20:55.844Z,2.87
2023-04-12T00:21:57.772Z,2.60
2023-04-12T00:22:59.355Z,2.47
2023-04-12T00:24:01.331Z,2.92
2023-04-12T00:25:02.931Z,2.67
2023-04-12T00:26:05.128Z,2.20
2023-04-12T00:27:06.757Z,2.40
2023-04-12T00:28:08.336Z,2.75
2023-04-12T00:29:10.130Z,2.58
2023-04-12T00:30:11.998Z,2.42
2023-04-12T00:31:13.681Z,2.47
2023-04-12T00:32:15.554Z,2.35
2023-04-12T00:33:17.121Z,2.20
2023-04-12T00:34:18.767Z,2.58
2023-04-12T00:35:20.523Z,2.15
2023-04-12T00:36:22.326Z,2.00
2023-04-12T00:37:23.977Z,2.17
2023-04-12T00:38:25.623Z,2.17
2023-04-12T00:39:27.479Z,2.13
2023-04-12T00:40:29.128Z,2.42
2023-04-12T00:41:30.873Z,2.13
2023-04-12T00:42:32.456Z,2.63
2023-04-12T00:43:34.256Z,2.08
2023-04-12T00:44:35.834Z,2.20
2023-04-12T00:45:37.662Z,1.88
2023-04-12T00:46:39.352Z,1.80
2023-04-12T00:47:41.088Z,2.38
2023-04-12T00:48:42.886Z,1.98
2023-04-12T00:49:44.451Z,2.33
2023-04-12T00:50:46.700Z,2.13
2023-04-12T00:51:48.284Z,2.03
2023-04-12T00:52:49.964Z,2.28
2023-04-12T00:53:57.578Z,1.98
2023-04-12T00:54:59.286Z,1.90
2023-04-12T00:56:01.765Z,1.90
2023-04-12T00:57:03.699Z,1.83
2023-04-12T00:58:05.906Z,1.60
2023-04-12T00:59:08.617Z,1.85
2023-04-12T01:00:13.569Z,1.98
2023-04-12T01:01:17.178Z,1.90
2023-04-12T01:02:18.988Z,1.60
2023-04-12T01:03:23.321Z,1.90
2023-04-12T01:04:26.527Z,1.55
2023-04-12T01:05:29.121Z,1.77
2023-04-12T01:06:40.392Z,2.10
2023-04-12T01:08:05.329Z,1.60
2023-04-12T01:09:40.685Z,1.27
2023-04-12T01:10:59.644Z,1.45
2023-04-12T01:12:24.755Z,1.70
2023-04-12T01:13:30.803Z,1.60
2023-04-12T01:14:40.634Z,1.60
2023-04-12T01:15:51.568Z,2.33
2023-04-12T01:16:53.829Z,1.75
2023-04-12T01:18:24.814Z,1.45
2023-04-12T01:19:34.217Z,1.83
2023-04-12T01:20:57.877Z,1.40
2023-04-12T01:22:02.678Z,1.48
2023-04-12T01:23:14.765Z,1.33
2023-04-12T01:24:43.950Z,1.73
2023-04-12T01:25:48.259Z,1.42
2023-04-12T01:26:49.991Z,1.57
2023-04-12T01:28:01.424Z,1.60
2023-04-12T01:29:08.001Z,1.75
2023-04-12T01:30:09.817Z,1.40
2023-04-12T01:31:12.964Z,1.77
2023-04-12T01:32:14.582Z,1.40
2023-04-12T01:33:16.180Z,1.75
2023-04-12T01:34:17.830Z,1.85
2023-04-12T01:35:19.674Z,1.95
2023-04-12T01:36:22.167Z,1.60
2023-04-12T01:37:23.779Z,1.50
2023-04-12T01:38:25.477Z,1.83
2023-04-12T01:39:27.592Z,1.92
2023-04-12T01:40:30.079Z,2.65
2023-04-12T01:41:32.802Z,1.88
2023-04-12T01:42:34.383Z,2.50
2023-04-12T01:43:46.254Z,1.73
2023-04-12T01:44:47.862Z,1.70
2023-04-12T01:45:49.590Z,1.45
2023-04-12T01:46:51.857Z,2.00
2023-04-12T01:47:53.548Z,1.90
2023-04-12T01:48:56.982Z,1.83
2023-04-12T01:50:18.687Z,1.63
2023-04-12T01:51:38.755Z,1.70
2023-04-12T01:52:43.486Z,1.92
2023-04-12T01:53:45.002Z,1.75
2023-04-12T01:54:48.735Z,1.30
2023-04-12T01:55:50.283Z,1.55
2023-04-12T01:56:57.864Z,1.58
2023-04-12T01:57:59.555Z,1.77
2023-04-12T01:59:01.159Z,1.70
2023-04-12T02:00:06.563Z,1.70
2023-04-12T02:01:08.230Z,1.60
2023-04-12T02:02:10.332Z,1.55
2023-04-12T02:03:12.714Z,1.70
2023-04-12T02:04:14.792Z,1.60
2023-04-12T02:05:16.736Z,2.10
2023-04-12T02:06:21.283Z,1.60
2023-04-12T02:07:23.194Z,1.40
2023-04-12T02:08:25.104Z,1.98
2023-04-12T02:09:26.671Z,1.77
2023-04-12T02:10:29.577Z,2.00
2023-04-12T02:11:31.349Z,1.95
2023-04-12T02:12:32.906Z,1.85
2023-04-12T02:13:34.561Z,1.73
2023-04-12T02:14:36.986Z,1.70
2023-04-12T02:15:38.620Z,1.88
2023-04-12T02:16:42.266Z,1.50
2023-04-12T02:17:46.233Z,1.60
2023-04-12T02:18:48.004Z,1.45
2023-04-12T02:19:49.568Z,1.73
2023-04-12T02:20:51.231Z,2.17
2023-04-12T02:21:52.871Z,2.00
2023-04-12T02:22:54.769Z,1.98
2023-04-12T02:23:56.534Z,2.05
2023-04-12T02:24:59.966Z,1.40
2023-04-12T02:26:01.727Z,1.83
2023-04-12T02:27:03.802Z,1.85
2023-04-12T02:28:06.776Z,1.83
2023-04-12T02:29:09.259Z,1.88
2023-04-12T02:30:11.523Z,2.20
2023-04-12T02:31:13.423Z,2.60
2023-04-12T02:32:15.744Z,1.83
2023-04-12T02:33:17.338Z,2.08
2023-04-12T02:34:19.048Z,2.00
2023-04-12T02:35:20.759Z,2.15
2023-04-12T02:36:22.429Z,2.10
2023-04-12T02:37:27.490Z,2.17
2023-04-12T02:38:29.379Z,1.90
2023-04-12T02:39:32.300Z,2.22
2023-04-12T02:40:35.593Z,2.10
2023-04-12T02:41:37.246Z,2.10
2023-04-12T02:42:40.344Z,2.15
2023-04-12T02:43:42.024Z,1.73
2023-04-12T02:44:47.896Z,1.63
2023-04-12T02:45:49.698Z,1.92
2023-04-12T02:46:51.396Z,1.85
2023-04-12T02:47:52.966Z,2.38
2023-04-12T02:48:54.610Z,1.88
2023-04-12T02:49:56.226Z,2.05
2023-04-12T02:50:58.336Z,2.17
2023-04-12T02:51:59.988Z,2.28
2023-04-12T02:53:01.583Z,2.13
2023-04-12T02:54:03.357Z,1.98
2023-04-12T02:55:05.328Z,2.22
2023-04-12T02:56:07.643Z,2.22
2023-04-12T02:57:09.288Z,2.20
2023-04-12T02:58:11.092Z,2.05
2023-04-12T02:59:13.085Z,2.35
2023-04-12T03:00:18.171Z,2.20
2023-04-12T03:01:19.776Z,2.30
2023-04-12T03:02:21.937Z,2.70
2023-04-12T03:03:25.067Z,2.05
2023-04-12T03:04:30.597Z,2.03
2023-04-12T03:05:32.463Z,2.30
2023-04-12T03:06:35.118Z,2.35
2023-04-12T03:07:36.743Z,2.30
2023-04-12T03:08:38.414Z,2.50
2023-04-12T03:09:42.650Z,2.25
2023-04-12T03:10:44.315Z,2.20
2023-04-12T03:11:46.975Z,2.53
2023-04-12T03:12:48.611Z,5.50
2023-04-12T03:13:50.385Z,7.88
2023-04-12T03:14:52.078Z,4.07
2023-04-12T03:15:56.198Z,3.17
2023-04-12T03:16:58.580Z,2.90
2023-04-12T03:18:00.216Z,3.58
2023-04-12T03:19:01.847Z,2.55
2023-04-12T03:20:07.880Z,2.78
2023-04-12T03:21:09.478Z,3.13
2023-04-12T03:22:11.240Z,2.87
2023-04-12T03:23:12.812Z,2.65
2023-04-12T03:24:14.463Z,2.90
2023-04-12T03:25:18.069Z,2.63
2023-04-12T03:26:20.637Z,2.58
2023-04-12T03:27:22.290Z,2.80
2023-04-12T03:28:23.875Z,2.60
2023-04-12T03:29:25.583Z,3.28
2023-04-12T03:30:27.161Z,2.60
2023-04-12T03:31:29.195Z,2.58
2023-04-12T03:32:30.838Z,2.70
2023-04-12T03:33:32.445Z,2.80
2023-04-12T03:34:34.034Z,2.83
2023-04-12T03:35:35.710Z,2.60
2023-04-12T03:36:38.184Z,2.90
2023-04-12T03:37:41.887Z,2.25
2023-04-12T03:38:43.570Z,2.40
2023-04-12T03:39:48.291Z,2.67
2023-04-12T03:40:50.180Z,2.85
2023-04-12T03:41:53.212Z,2.42
2023-04-12T03:42:54.879Z,2.80
2023-04-12T03:43:56.865Z,3.03
2023-04-12T03:44:58.734Z,3.10
2023-04-12T03:46:00.338Z,3.03
2023-04-12T03:47:01.953Z,3.00
2023-04-12T03:48:03.884Z,2.50
2023-04-12T03:49:05.592Z,3.42
2023-04-12T03:50:11.951Z,2.95
2023-04-12T03:51:13.797Z,2.70
2023-04-12T03:52:15.419Z,3.20
2023-04-12T03:53:17.004Z,3.20
2023-04-12T03:54:18.601Z,2.80
2023-04-12T03:55:20.296Z,3.28
2023-04-12T03:56:21.903Z,2.70
2023-04-12T03:57:23.451Z,3.17
2023-04-12T03:58:24.983Z,2.70
2023-04-12T03:59:26.600Z,2.65
2023-04-12T04:00:28.211Z,2.28
2023-04-12T04:01:29.807Z,2.90
2023-04-12T04:02:32.087Z,2.83
2023-04-12T04:03:35.181Z,3.10
2023-04-12T04:04:38.124Z,2.80
2023-04-12T04:05:39.777Z,3.03
2023-04-12T04:06:41.375Z,2.50
2023-04-12T04:07:43.013Z,3.13
2023-04-12T04:08:45.179Z,2.55
2023-04-12T04:09:46.801Z,3.00
2023-04-12T04:10:48.401Z,3.05
2023-04-12T04:11:51.674Z,3.20
2023-04-12T04:12:53.698Z,2.97
2023-04-12T04:13:55.692Z,2.73
2023-04-12T04:14:57.653Z,3.33
2023-04-12T04:16:02.136Z,2.90
2023-04-12T04:17:03.803Z,3.03
2023-04-12T04:18:05.681Z,3.28
2023-04-12T04:19:07.384Z,3.28
2023-04-12T04:20:09.762Z,3.95
2023-04-12T04:21:11.398Z,3.33
2023-04-12T04:22:13.928Z,4.32
2023-04-12T04:23:17.563Z,4.00
2023-04-12T04:24:19.233Z,2.80
2023-04-12T04:25:21.927Z,2.78
2023-04-12T04:26:33.303Z,2.50
2023-04-12T04:27:38.582Z,2.97
2023-04-12T04:28:45.145Z,2.80
2023-04-12T04:29:47.004Z,3.00
2023-04-12T04:30:48.628Z,2.85
2023-04-12T04:31:50.923Z,2.88
2023-04-12T04:32:52.992Z,2.60
2023-04-12T04:33:54.773Z,3.10
2023-04-12T04:34:57.440Z,2.70
2023-04-12T04:35:59.042Z,2.75
2023-04-12T04:37:00.741Z,2.60
2023-04-12T04:38:02.397Z,2.50
2023-04-12T04:39:04.914Z,2.85
2023-04-12T04:40:11.814Z,2.28
2023-04-12T04:41:13.421Z,2.47
2023-04-12T04:42:15.014Z,2.20
2023-04-12T04:43:18.808Z,2.08
2023-04-12T04:44:20.700Z,4.15
2023-04-12T04:45:26.673Z,2.73
2023-04-12T04:46:30.514Z,3.55
2023-04-12T04:47:32.168Z,3.33
2023-04-12T04:48:34.074Z,2.30
2023-04-12T04:49:38.781Z,2.70
2023-04-12T04:50:40.559Z,2.10
2023-04-12T04:51:42.170Z,3.40
2023-04-12T04:52:44.692Z,2.40
2023-04-12T04:53:46.637Z,3.78
2023-04-12T04:54:48.347Z,2.50
2023-04-12T04:55:49.945Z,2.50
2023-04-12T04:56:51.559Z,3.15
2023-04-12T04:57:53.141Z,3.00
2023-04-12T04:58:56.815Z,2.50
2023-04-12T04:59:58.586Z,2.70
2023-04-12T05:01:00.221Z,2.50
2023-04-12T05:02:02.012Z,2.15
2023-04-12T05:03:03.737Z,2.08
2023-04-12T05:04:05.648Z,2.25
2023-04-12T05:05:08.017Z,2.00
2023-04-12T05:06:09.624Z,2.23
2023-04-12T05:07:13.249Z,1.90
2023-04-12T05:08:14.803Z,2.03
2023-04-12T05:09:17.135Z,2.30
2023-04-12T05:10:18.844Z,2.13
2023-04-12T05:11:21.620Z,2.17
2023-04-12T05:12:23.206Z,2.28
2023-04-12T05:13:24.891Z,2.28
2023-04-12T05:14:41.244Z,2.28
2023-04-12T05:15:47.308Z,2.00
2023-04-12T05:16:48.945Z,1.70
2023-04-12T05:17:50.703Z,2.13
2023-04-12T05:18:52.314Z,1.63
2023-04-12T05:19:54.037Z,1.58
2023-04-12T05:20:55.702Z,3.20
2023-04-12T05:21:58.167Z,2.10
2023-04-12T05:22:59.741Z,2.38
2023-04-12T05:24:01.585Z,2.30
2023-04-12T05:25:03.988Z,2.33
2023-04-12T05:26:05.596Z,2.20
2023-04-12T05:27:07.198Z,2.10
2023-04-12T05:28:14.327Z,2.20
2023-04-12T05:29:16.086Z,2.47
2023-04-12T05:30:17.667Z,2.33
2023-04-12T05:31:19.330Z,1.95
2023-04-12T05:32:20.965Z,2.10
2023-04-12T05:33:22.608Z,2.38
2023-04-12T05:34:24.897Z,1.92
2023-04-12T05:35:27.485Z,1.77
2023-04-12T05:36:29.150Z,2.42
2023-04-12T05:37:30.894Z,2.10
2023-04-12T05:38:32.545Z,2.05
2023-04-12T05:39:34.191Z,1.90
2023-04-12T05:40:36.546Z,2.25
2023-04-12T05:41:38.178Z,2.30
2023-04-12T05:42:39.866Z,2.15
2023-04-12T05:43:41.454Z,2.42
2023-04-12T05:44:44.912Z,2.05
2023-04-12T05:45:46.599Z,2.22
2023-04-12T05:46:48.335Z,2.33
2023-04-12T05:47:50.118Z,2.23
2023-04-12T05:48:51.813Z,2.17
2023-04-12T05:49:54.123Z,2.10
2023-04-12T05:50:55.889Z,2.10
2023-04-12T05:51:58.347Z,2.58
2023-04-12T05:53:02.865Z,2.60
2023-04-12T05:54:07.387Z,2.47
2023-04-12T05:55:09.347Z,2.50
2023-04-12T05:56:10.944Z,2.50
2023-04-12T05:57:12.581Z,2.42
2023-04-12T05:58:14.367Z,2.37
2023-04-12T05:59:16.456Z,2.80
2023-04-12T06:00:19.135Z,2.70
2023-04-12T06:01:21.975Z,1.95
2023-04-12T06:02:26.181Z,2.30
2023-04-12T06:03:30.485Z,2.42
2023-04-12T06:04:48.705Z,2.40
2023-04-12T06:05:52.736Z,2.40
2023-04-12T06:06:56.209Z,3.08
2023-04-12T06:07:59.917Z,2.55
2023-04-12T06:09:02.849Z,2.63
2023-04-12T06:10:04.630Z,2.30
2023-04-12T06:11:06.412Z,2.63
2023-04-12T06:12:08.084Z,2.40
2023-04-12T06:13:09.670Z,3.15
2023-04-12T06:14:11.998Z,3.45
2023-04-12T06:15:13.892Z,3.00
2023-04-12T06:16:15.623Z,2.53
2023-04-12T06:17:17.310Z,2.95
2023-04-12T06:18:19.004Z,3.10
2023-04-12T06:19:20.623Z,2.90
2023-04-12T06:20:22.238Z,2.63
2023-04-12T06:21:23.813Z,2.88
2023-04-12T06:22:25.564Z,4.13
2023-04-12T06:23:27.163Z,3.00
2023-04-12T06:24:28.771Z,3.05
2023-04-12T06:25:30.380Z,3.03
2023-04-12T06:26:39.011Z,3.03
2023-04-12T06:27:41.652Z,3.10
2023-04-12T06:28:43.300Z,3.10
2023-04-12T06:29:44.877Z,2.90
2023-04-12T06:30:46.467Z,3.03
2023-04-12T06:31:48.444Z,3.28
2023-04-12T06:32:50.350Z,3.60
2023-04-12T06:33:51.977Z,3.00
2023-04-12T06:34:53.653Z,3.63
2023-04-12T06:35:55.310Z,2.88
2023-04-12T06:36:57.623Z,2.92
2023-04-12T06:37:59.282Z,3.60
2023-04-12T06:39:00.970Z,3.13
2023-04-12T06:40:02.611Z,2.50
2023-04-12T06:41:04.347Z,3.10
2023-04-12T06:42:06.170Z,2.85
2023-04-12T06:43:08.310Z,2.78
2023-04-12T06:44:10.230Z,2.63
2023-04-12T06:45:11.948Z,2.92
2023-04-12T06:46:15.658Z,3.45
2023-04-12T06:47:17.314Z,2.95
2023-04-12T06:48:19.052Z,2.80
2023-04-12T06:49:20.919Z,3.00
2023-04-12T06:50:22.885Z,2.80
2023-04-12T06:51:24.708Z,3.35
2023-04-12T06:52:26.776Z,3.10
2023-04-12T06:53:28.442Z,2.90
2023-04-12T06:54:30.109Z,2.60
2023-04-12T06:55:31.806Z,2.50
2023-04-12T06:56:33.409Z,2.70
2023-04-12T06:57:35.011Z,2.80
2023-04-12T06:58:36.805Z,2.72
2023-04-12T06:59:38.409Z,2.63
2023-04-12T07:00:40.187Z,2.90
2023-04-12T07:01:43.365Z,2.60
2023-04-12T07:02:45.550Z,2.65
2023-04-12T07:03:47.496Z,3.20
2023-04-12T07:04:54.118Z,3.03
2023-04-12T07:05:56.601Z,2.55
2023-04-12T07:06:58.242Z,2.20
2023-04-12T07:07:59.830Z,2.65
2023-04-12T07:09:01.436Z,2.45
2023-04-12T07:10:04.458Z,2.85
2023-04-12T07:11:20.069Z,2.40
2023-04-12T07:12:22.970Z,2.47
2023-04-12T07:13:24.654Z,2.45
2023-04-12T07:14:26.466Z,2.53
2023-04-12T07:15:28.052Z,2.40
2023-04-12T07:16:31.261Z,2.55
2023-04-12T07:17:32.982Z,2.42
2023-04-12T07:18:34.826Z,3.17
2023-04-12T07:19:36.969Z,2.25
2023-04-12T07:20:38.553Z,2.60
2023-04-12T07:21:40.262Z,1.90
2023-04-12T07:22:41.839Z,1.98
2023-04-12T07:23:44.064Z,2.30
2023-04-12T07:24:45.641Z,2.47
2023-04-12T07:25:47.285Z,2.30
2023-04-12T07:26:48.911Z,2.50
2023-04-12T07:27:51.793Z,2.50
2023-04-12T07:28:54.846Z,2.17
2023-04-12T07:29:58.117Z,2.70
2023-04-12T07:31:00.075Z,2.35
2023-04-12T07:32:01.732Z,2.27
2023-04-12T07:33:18.375Z,2.40
2023-04-12T07:34:21.607Z,2.00
2023-04-12T07:35:23.465Z,2.17
2023-04-12T07:36:25.100Z,2.05
2023-04-12T07:37:26.785Z,2.05
2023-04-12T07:38:28.408Z,2.28
2023-04-12T07:39:30.044Z,2.13
2023-04-12T07:40:31.631Z,2.47
2023-04-12T07:41:33.282Z,1.60
2023-04-12T07:42:34.907Z,2.20
2023-04-12T07:43:36.539Z,2.13
2023-04-12T07:44:38.868Z,2.20
2023-04-12T07:45:40.823Z,2.03
2023-04-12T07:46:42.512Z,2.28
2023-04-12T07:47:44.880Z,2.08
2023-04-12T07:48:46.556Z,2.03
2023-04-12T07:49:48.218Z,1.90
2023-04-12T07:50:50.588Z,2.33
2023-04-12T07:51:52.507Z,2.10
2023-04-12T07:52:54.083Z,2.20
2023-04-12T07:53:55.966Z,2.65
2023-04-12T07:54:57.738Z,2.33
2023-04-12T07:55:59.321Z,2.40
2023-04-12T07:57:02.609Z,2.38
2023-04-12T07:58:04.225Z,2.15
2023-04-12T07:59:06.623Z,1.58
2023-04-12T08:00:09.219Z,2.20
2023-04-12T08:01:12.268Z,2.65
2023-04-12T08:02:14.301Z,2.40
2023-04-12T08:03:17.067Z,2.13
2023-04-12T08:04:18.987Z,2.05
2023-04-12T08:05:20.778Z,1.95
2023-04-12T08:06:22.386Z,2.17
2023-04-12T08:07:24.169Z,1.75
2023-04-12T08:08:25.928Z,1.90
2023-04-12T08:09:27.565Z,1.75
2023-04-12T08:10:29.582Z,1.70
2023-04-12T08:11:31.247Z,1.70
2023-04-12T08:12:32.999Z,1.98
2023-04-12T08:13:34.963Z,1.67
2023-04-12T08:14:39.062Z,1.83
2023-04-12T08:15:41.440Z,3.00
2023-04-12T08:16:43.106Z,2.92
2023-04-12T08:17:46.693Z,2.00
2023-04-12T08:18:48.388Z,2.08
2023-04-12T08:19:50.001Z,2.17
2023-04-12T08:20:52.269Z,2.00
2023-04-12T08:21:53.906Z,1.95
2023-04-12T08:22:55.823Z,1.70
2023-04-12T08:23:57.768Z,1.80
2023-04-12T08:24:59.553Z,1.80
2023-04-12T08:26:03.818Z,1.80
2023-04-12T08:27:05.613Z,1.92
2023-04-12T08:28:10.049Z,2.13
2023-04-12T08:29:12.311Z,2.25
2023-04-12T08:30:14.012Z,1.98
2023-04-12T08:31:16.325Z,1.60
2023-04-12T08:32:18.012Z,1.98
2023-04-12T08:33:19.676Z,1.80
2023-04-12T08:34:22.540Z,1.83
2023-04-12T08:35:24.260Z,1.70
2023-04-12T08:36:27.336Z,1.70
2023-04-12T08:37:28.938Z,1.80
2023-04-12T08:38:44.123Z,1.88
2023-04-12T08:39:46.984Z,1.60
2023-04-12T08:40:48.676Z,1.63
2023-04-12T08:41:50.274Z,1.83
2023-04-12T08:42:51.889Z,1.60
2023-04-12T08:43:55.457Z,1.90
2023-04-12T08:44:57.123Z,1.40
2023-04-12T08:45:58.697Z,1.70
2023-04-12T08:47:01.938Z,1.58
2023-04-12T08:48:04.981Z,1.70
2023-04-12T08:49:06.620Z,1.83
2023-04-12T08:50:09.566Z,1.70
2023-04-12T08:51:15.972Z,1.75
2023-04-12T08:52:17.626Z,1.65
2023-04-12T08:53:19.223Z,1.30
2023-04-12T08:54:20.890Z,1.70
2023-04-12T08:55:22.595Z,1.00
2023-04-12T08:56:24.410Z,1.02
2023-04-12T08:57:26.206Z,1.10
2023-04-12T08:58:27.828Z,1.52
2023-04-12T08:59:29.766Z,1.30
2023-04-12T09:00:31.360Z,0.90
2023-04-12T09:01:33.100Z,0.90
2023-04-12T09:02:38.535Z,0.80
2023-04-12T09:03:41.023Z,0.82
2023-04-12T09:04:49.910Z,0.80
2023-04-12T09:05:51.568Z,1.97
2023-04-12T09:06:53.278Z,0.90
2023-04-12T09:07:54.935Z,0.88
2023-04-12T09:08:57.025Z,1.20
2023-04-12T09:09:58.829Z,0.88
2023-04-12T09:11:00.698Z,1.02
2023-04-12T09:12:09.463Z,0.70
2023-04-12T09:13:11.223Z,0.85
2023-04-12T09:14:30.984Z,0.68
2023-04-12T09:15:33.622Z,0.70
2023-04-12T09:16:36.159Z,0.70
2023-04-12T09:17:39.052Z,0.85
2023-04-12T09:18:50.169Z,0.70
2023-04-12T09:19:52.016Z,0.70
2023-04-12T09:21:09.503Z,1.00
2023-04-12T09:22:11.300Z,0.80
2023-04-12T09:23:20.648Z,0.80
2023-04-12T09:24:24.432Z,1.00
2023-04-12T09:25:50.216Z,1.10
2023-04-12T09:27:10.021Z,1.30
2023-04-12T09:28:22.520Z,0.90
2023-04-12T09:29:25.546Z,1.10
2023-04-12T09:30:27.309Z,0.70
2023-04-12T09:31:29.035Z,0.82
2023-04-12T09:32:30.898Z,0.63
2023-04-12T09:33:34.515Z,0.90
2023-04-12T09:34:36.689Z,0.70
2023-04-12T09:35:38.466Z,0.90
2023-04-12T09:36:40.636Z,0.75
2023-04-12T09:37:42.368Z,1.10
2023-04-12T09:39:01.497Z,1.03
2023-04-12T09:40:05.078Z,0.88
2023-04-12T09:41:20.257Z,0.80
2023-04-12T09:42:33.091Z,0.80
2023-04-12T09:43:37.653Z,0.80
2023-04-12T09:44:39.486Z,0.82
2023-04-12T09:45:41.210Z,0.70
2023-04-12T09:46:52.357Z,0.73
2023-04-12T09:47:55.875Z,0.73
2023-04-12T09:48:59.344Z,0.88
2023-04-12T09:50:01.125Z,1.40
2023-04-12T09:51:02.917Z,0.80
2023-04-12T09:52:05.509Z,1.17
2023-04-12T09:53:17.145Z,0.82
2023-04-12T09:54:18.747Z,0.80
2023-04-12T09:55:21.736Z,0.57
2023-04-12T09:56:23.534Z,1.15
2023-04-12T09:57:25.296Z,1.30
2023-04-12T09:58:26.899Z,1.00
2023-04-12T09:59:30.005Z,0.77
2023-04-12T10:00:32.054Z,1.30
2023-04-12T10:01:39.871Z,1.20
2023-04-12T10:02:42.817Z,1.15
2023-04-12T10:03:46.775Z,1.10
2023-04-12T10:04:48.958Z,1.17
2023-04-12T10:05:50.630Z,0.77
2023-04-12T10:06:52.229Z,0.95
2023-04-12T10:07:54.788Z,0.82
2023-04-12T10:08:57.087Z,0.80
2023-04-12T10:09:59.118Z,0.88
2023-04-12T10:11:00.814Z,0.80
2023-04-12T10:12:03.684Z,0.60
2023-04-12T10:13:05.973Z,1.00
2023-04-12T10:14:07.582Z,0.88
2023-04-12T10:15:13.489Z,0.77
2023-04-12T10:16:15.792Z,1.20
2023-04-12T10:17:17.414Z,1.02
2023-04-12T10:18:19.270Z,1.40
2023-04-12T10:19:21.058Z,1.00
2023-04-12T10:20:24.809Z,0.90
2023-04-12T10:21:29.579Z,0.93
2023-04-12T10:22:31.201Z,1.00
2023-04-12T10:23:33.107Z,0.85
2023-04-12T10:24:34.774Z,0.70
2023-04-12T10:25:36.974Z,0.85
2023-04-12T10:26:42.596Z,0.80
2023-04-12T10:27:44.738Z,1.45
2023-04-12T10:28:47.174Z,1.20
2023-04-12T10:29:48.787Z,1.40
2023-04-12T10:30:52.225Z,1.17
2023-04-12T10:31:58.256Z,1.37
2023-04-12T10:33:02.805Z,1.67
2023-04-12T10:34:05.361Z,1.45
2023-04-12T10:35:07.733Z,1.40
2023-04-12T10:36:12.344Z,1.25
2023-04-12T10:37:14.327Z,1.38
2023-04-12T10:38:16.326Z,1.30
2023-04-12T10:39:18.107Z,1.58
2023-04-12T10:40:19.787Z,1.40
2023-04-12T10:41:21.786Z,1.70
2023-04-12T10:42:24.298Z,1.20
2023-04-12T10:43:30.036Z,1.23
2023-04-12T10:44:31.663Z,1.30
2023-04-12T10:45:34.020Z,1.45
2023-04-12T10:46:38.833Z,1.30
2023-04-12T10:47:50.279Z,1.25
2023-04-12T10:48:52.580Z,1.42
2023-04-12T10:50:25.660Z,2.08
2023-04-12T10:51:28.786Z,1.15
2023-04-12T10:52:30.576Z,1.33
2023-04-12T10:53:32.213Z,1.60
2023-04-12T10:54:36.748Z,1.25
2023-04-12T10:55:42.822Z,1.48
2023-04-12T10:56:47.829Z,1.75
2023-04-12T10:57:49.955Z,1.73
2023-04-12T10:58:51.595Z,1.27
2023-04-12T10:59:56.900Z,2.42
2023-04-12T11:00:58.955Z,1.60
2023-04-12T11:02:11.727Z,1.95
2023-04-12T11:03:14.247Z,2.60
2023-04-12T11:04:20.588Z,4.00
2023-04-12T11:05:22.757Z,3.08
2023-04-12T11:07:01.854Z,4.15
2023-04-12T11:08:03.814Z,2.83
2023-04-12T11:09:05.856Z,3.13
2023-04-12T11:10:17.541Z,3.10
2023-04-12T11:11:20.247Z,1.80
2023-04-12T11:12:21.933Z,1.42
2023-04-12T11:13:23.574Z,1.30
2023-04-12T11:14:30.603Z,1.67
2023-04-12T11:15:34.025Z,1.40
2023-04-12T11:16:35.666Z,1.70
2023-04-12T11:17:37.943Z,1.45
2023-04-12T11:18:39.892Z,1.58
2023-04-12T11:19:56.356Z,1.30
2023-04-12T11:20:58.109Z,1.40
2023-04-12T11:22:01.315Z,2.22
2023-04-12T11:23:03.006Z,1.63
2023-04-12T11:24:04.581Z,1.50
2023-04-12T11:25:06.545Z,1.35
2023-04-12T11:26:09.249Z,2.03
2023-04-12T11:27:10.891Z,1.38
2023-04-12T11:28:27.988Z,1.30
2023-04-12T11:29:32.638Z,1.48
2023-04-12T11:30:34.271Z,1.42
2023-04-12T11:31:38.608Z,1.63
2023-04-12T11:32:41.770Z,1.42
2023-04-12T11:33:43.517Z,1.80
2023-04-12T11:34:46.820Z,1.30
2023-04-12T11:35:48.414Z,1.50
2023-04-12T11:36:53.752Z,1.73
2023-04-12T11:37:57.546Z,1.25
2023-04-12T11:38:59.569Z,1.38
2023-04-12T11:40:01.364Z,1.35
2023-04-12T11:41:03.018Z,1.13
2023-04-12T11:42:04.982Z,2.13
2023-04-12T11:43:06.575Z,1.80
2023-04-12T11:44:08.236Z,1.83
2023-04-12T11:45:17.040Z,1.40
2023-04-12T11:46:20.312Z,1.48
2023-04-12T11:47:23.250Z,1.50
2023-04-12T11:48:28.545Z,1.20
2023-04-12T11:49:30.245Z,1.35
2023-04-12T11:50:32.565Z,1.20
2023-04-12T11:51:35.849Z,1.50
2023-04-12T11:52:37.454Z,1.67
2023-04-12T11:53:39.138Z,1.48
2023-04-12T11:54:47.538Z,1.50
2023-04-12T11:55:49.813Z,1.98
2023-04-12T11:56:51.375Z,1.65
2023-04-12T11:57:56.139Z,1.27
2023-04-12T11:58:57.828Z,1.42
2023-04-12T12:00:00.415Z,1.40
2023-04-12T12:01:02.291Z,1.58
2023-04-12T12:02:13.728Z,1.70
2023-04-12T12:03:23.649Z,2.13
2023-04-12T12:04:26.218Z,1.40
2023-04-12T12:05:28.063Z,1.60
2023-04-12T12:06:30.006Z,1.85
2023-04-12T12:07:32.724Z,1.25
2023-04-12T12:08:34.710Z,1.80
2023-04-12T12:09:36.644Z,1.42
2023-04-12T12:10:46.939Z,1.40
2023-04-12T12:11:54.441Z,1.60
2023-04-12T12:12:58.137Z,1.42
2023-04-12T12:14:00.497Z,1.50
2023-04-12T12:15:02.448Z,1.35
2023-04-12T12:16:07.470Z,1.73
2023-04-12T12:17:11.091Z,1.20
2023-04-12T12:18:12.671Z,1.70
2023-04-12T12:19:14.328Z,1.40
2023-04-12T12:20:22.278Z,1.60
2023-04-12T12:21:24.007Z,1.67
2023-04-12T12:22:25.767Z,1.80
2023-04-12T12:23:33.401Z,1.63
2023-04-12T12:24:37.246Z,1.88
2023-04-12T12:25:46.175Z,2.15
2023-04-12T12:26:49.557Z,2.30
2023-04-12T12:27:57.091Z,1.70
2023-04-12T12:29:00.453Z,1.90
2023-04-12T12:30:02.760Z,1.50
2023-04-12T12:31:07.715Z,1.45
2023-04-12T12:32:13.760Z,3.72
2023-04-12T12:33:26.836Z,3.40
2023-04-12T12:34:37.092Z,2.42
2023-04-12T12:35:38.835Z,2.00
2023-04-12T12:36:40.551Z,1.58
2023-04-12T12:37:52.528Z,1.70
2023-04-12T12:38:54.228Z,2.08
2023-04-12T12:40:01.826Z,6.00
2023-04-12T12:41:22.888Z,4.30
2023-04-12T12:42:24.463Z,3.33
2023-04-12T12:43:26.109Z,3.30
2023-04-12T12:44:27.688Z,4.70
2023-04-12T12:45:30.067Z,3.42
2023-04-12T12:46:50.731Z,1.38
2023-04-12T12:47:56.493Z,1.30
2023-04-12T12:48:58.165Z,1.30
2023-04-12T12:49:59.761Z,1.50
2023-04-12T12:51:01.437Z,1.30
2023-04-12T12:52:03.251Z,1.63
2023-04-12T12:53:06.477Z,1.50
2023-04-12T12:54:08.088Z,1.73
2023-04-12T12:55:09.995Z,1.33
2023-04-12T12:56:12.329Z,1.88
2023-04-12T12:57:14.105Z,1.98
2023-04-12T12:58:15.806Z,2.33
2023-04-12T12:59:17.744Z,3.00
2023-04-12T13:00:19.944Z,2.30
2023-04-12T13:01:21.617Z,2.15
2023-04-12T13:02:23.277Z,2.20
2023-04-12T13:03:25.273Z,1.80
2023-04-12T13:04:27.195Z,1.90
2023-04-12T13:05:28.919Z,2.13
2023-04-12T13:06:32.206Z,1.92
2023-04-12T13:07:33.905Z,1.95
2023-04-12T13:08:37.247Z,1.80
2023-04-12T13:09:38.914Z,1.80
2023-04-12T13:10:40.625Z,1.70
2023-04-12T13:11:42.270Z,1.50
2023-04-12T13:12:44.136Z,1.40
2023-04-12T13:13:45.825Z,1.80
2023-04-12T13:14:47.964Z,1.52
2023-04-12T13:15:51.811Z,1.50
2023-04-12T13:16:54.200Z,1.20
2023-04-12T13:17:56.144Z,1.55
2023-04-12T13:18:57.945Z,1.48
2023-04-12T13:19:59.732Z,1.20
2023-04-12T13:21:01.340Z,0.98
2023-04-12T13:22:03.146Z,1.10
2023-04-12T13:23:04.863Z,1.37
2023-04-12T13:24:06.706Z,1.00
2023-04-12T13:25:09.239Z,1.00
2023-04-12T13:26:10.837Z,0.90
2023-04-12T13:27:16.124Z,0.82
2023-04-12T13:28:17.891Z,1.58
2023-04-12T13:29:19.540Z,1.90
2023-04-12T13:30:21.258Z,1.90
2023-04-12T13:31:22.999Z,1.70
2023-04-12T13:32:24.678Z,1.70
2023-04-12T13:33:26.513Z,1.90
2023-04-12T13:34:28.158Z,1.63
2023-04-12T13:35:29.818Z,1.60
2023-04-12T13:36:31.874Z,1.40
2023-04-12T13:37:36.462Z,1.60
2023-04-12T13:38:38.096Z,1.40
2023-04-12T13:39:40.289Z,1.50
2023-04-12T13:40:41.946Z,2.15
2023-04-12T13:41:43.585Z,1.80
2023-04-12T13:42:45.373Z,1.60
2023-04-12T13:43:46.983Z,1.63
2023-04-12T13:44:48.769Z,1.88
2023-04-12T13:45:50.910Z,1.60
2023-04-12T13:46:52.509Z,1.70
2023-04-12T13:47:54.153Z,2.00
2023-04-12T13:48:56.003Z,1.70
2023-04-12T13:49:57.840Z,1.80
2023-04-12T13:50:59.840Z,1.90
2023-04-12T13:52:02.364Z,1.75
2023-04-12T13:53:04.015Z,1.70
2023-04-12T13:54:05.892Z,1.77
2023-04-12T13:55:08.553Z,2.28
2023-04-12T13:56:11.858Z,2.03
2023-04-12T13:57:13.464Z,1.98
2023-04-12T13:58:15.059Z,1.77
2023-04-12T13:59:17.564Z,2.03
2023-04-12T14:00:20.129Z,1.38
2023-04-12T14:01:23.756Z,1.80
2023-04-12T14:02:25.648Z,1.77